Time;durP1;ratioP1;P1;durP2;ratioP2;P2;SDS_P1;SDS_P2;PMS_P1;PMS_P2;Temp;Humidity;BMP_temperature;BMP_pressure;BME280_temperature;BME280_humidity;BME280_pressure;Samples;Min_cycle;Max_cycle;Signal;HPM_P1;HPM_P2
2023/07/08 13:45:29;;;;;;;5.15;2.92;;;45.40;21.00;;;;;;7456939;23;20026;-75
2023/07/08 13:48:43;;;;;;;11.38;2.70;;;45.00;21.30;;;;;;6146687;28;20491;-74
2023/07/08 13:51:48;;;;;;;6.03;2.22;;;45.00;21.40;;;;;;6128762;29;20035;-73
2023/07/08 13:54:55;;;;;;;7.07;2.85;;;45.10;21.50;;;;;;6110635;28;20407;-75
2023/07/08 13:58:00;;;;;;;10.40;2.42;;;45.40;21.00;;;;;;6122722;29;20028;-74
2023/07/08 14:01:01;;;;;;;4.38;2.35;;;45.40;21.00;;;;;;6105613;29;20032;-75
2023/07/08 14:04:03;;;;;;;6.82;2.55;;;45.20;21.00;;;;;;6121321;29;20028;-76
2023/07/08 14:07:09;;;;;;;6.22;2.42;;;45.20;21.20;;;;;;6121704;29;20067;-74
2023/07/08 14:10:12;;;;;;;6.27;2.63;;;45.40;20.80;;;;;;6123222;29;20744;-75
2023/07/08 14:13:15;;;;;;;6.07;2.63;;;45.20;21.20;;;;;;6122258;29;20199;-75
2023/07/08 14:16:29;;;;;;;7.35;2.58;;;45.60;20.90;;;;;;6105305;29;20130;-76
2023/07/08 14:19:32;;;;;;;6.03;2.53;;;46.30;20.50;;;;;;6105634;29;20039;-75
2023/07/08 14:22:33;;;;;;;3.33;2.28;;;47.00;20.10;;;;;;6104349;29;20479;-74
2023/07/08 14:25:34;;;;;;;8.98;3.28;;;47.50;19.50;;;;;;6122106;29;20163;-75
2023/07/08 14:28:35;;;;;;;5.35;2.63;;;47.70;19.50;;;;;;6121986;29;20122;-73
2023/07/08 14:31:37;;;;;;;4.45;2.55;;;47.70;19.20;;;;;;6119992;29;20474;-74
2023/07/08 14:34:38;;;;;;;3.42;2.15;;;47.30;19.50;;;;;;6135852;28;20027;-75
2023/07/08 14:37:40;;;;;;;4.55;2.75;;;47.10;19.60;;;;;;6119602;29;20420;-73
2023/07/08 14:40:42;;;;;;;5.45;2.90;;;47.20;19.60;;;;;;6122686;29;20047;-75
2023/07/08 14:43:43;;;;;;;6.28;2.85;;;47.20;19.60;;;;;;6136526;28;20112;-75
2023/07/08 14:46:44;;;;;;;4.15;2.90;;;47.60;19.40;;;;;;6120110;29;20590;-74
2023/07/08 14:49:46;;;;;;;7.20;3.08;;;48.10;19.20;;;;;;6119815;29;20031;-74
2023/07/08 14:52:47;;;;;;;5.05;2.50;;;48.10;18.90;;;;;;6119202;29;20031;-75
2023/07/08 14:55:55;;;;;;;7.03;3.05;;;47.90;19.00;;;;;;6120101;29;20040;-74
2023/07/08 14:58:57;;;;;;;7.57;2.75;;;47.50;19.20;;;;;;6104446;29;20087;-73
2023/07/08 15:02:00;;;;;;;5.03;2.35;;;46.70;19.90;;;;;;6119409;29;20065;-74
2023/07/08 15:05:01;;;;;;;8.48;3.15;;;46.70;20.00;;;;;;6103405;29;20039;-75
2023/07/08 15:08:03;;;;;;;4.88;2.60;;;46.80;19.80;;;;;;6103761;29;20174;-74
2023/07/08 15:11:08;;;;;;;6.15;2.88;;;46.50;20.00;;;;;;6120720;29;20121;-75
2023/07/08 15:14:19;;;;;;;6.63;2.25;;;46.40;20.00;;;;;;6103419;29;20060;-74
2023/07/08 15:17:20;;;;;;;5.03;2.50;;;46.40;20.10;;;;;;6119172;29;20043;-73
2023/07/08 15:20:22;;;;;;;5.00;2.50;;;46.60;20.00;;;;;;6102893;29;20549;-79
2023/07/08 15:23:23;;;;;;;4.82;2.50;;;46.70;20.00;;;;;;6119914;29;20114;-75
2023/07/08 15:26:25;;;;;;;3.83;2.17;;;46.50;20.00;;;;;;6118666;29;20105;-73
2023/07/08 15:29:26;;;;;;;5.03;2.50;;;46.20;20.20;;;;;;6120320;29;20076;-73
2023/07/08 15:32:27;;;;;;;4.57;2.60;;;46.20;20.20;;;;;;6117857;29;20066;-75
2023/07/08 15:35:33;;;;;;;6.35;2.25;;;46.30;20.30;;;;;;6135019;29;20039;-74
2023/07/08 15:38:34;;;;;;;5.07;2.50;;;46.50;20.00;;;;;;6132289;29;20062;-74
2023/07/08 15:41:38;;;;;;;9.43;2.35;;;46.00;20.20;;;;;;6141872;29;20344;-75
2023/07/08 15:44:39;;;;;;;10.20;2.75;;;45.50;20.50;;;;;;6127797;28;20083;-74
2023/07/08 15:47:40;;;;;;;5.97;2.45;;;45.40;20.70;;;;;;6119350;29;20519;-76
2023/07/08 15:50:43;;;;;;;7.82;2.40;;;45.30;20.70;;;;;;6119444;29;20110;-74
2023/07/08 15:53:44;;;;;;;6.15;2.45;;;45.30;20.70;;;;;;6119150;29;20090;-76
2023/07/08 15:56:48;;;;;;;4.70;2.55;;;45.10;20.90;;;;;;6118546;29;20036;-73
2023/07/08 15:59:50;;;;;;;5.57;2.47;;;44.90;20.90;;;;;;6119620;29;20038;-74
2023/07/08 16:02:54;;;;;;;7.20;2.60;;;44.70;21.20;;;;;;6117515;29;20108;-76
2023/07/08 16:05:57;;;;;;;8.20;2.63;;;44.80;21.20;;;;;;6118148;29;20127;-74
2023/07/08 16:08:58;;;;;;;6.28;2.58;;;44.70;21.20;;;;;;6102615;29;20055;-75
2023/07/08 16:12:00;;;;;;;6.93;2.70;;;44.50;21.40;;;;;;6118468;29;20043;-74
2023/07/08 16:15:02;;;;;;;4.20;2.17;;;44.40;21.60;;;;;;6119675;29;20091;-74
2023/07/08 16:18:04;;;;;;;6.10;2.40;;;44.20;21.60;;;;;;6118691;29;20028;-73
2023/07/08 16:21:06;;;;;;;6.30;2.40;;;44.10;21.70;;;;;;6119704;29;20576;-74
2023/07/08 16:24:10;;;;;;;5.30;2.55;;;43.80;21.80;;;;;;6102555;29;20063;-75
2023/07/08 16:27:11;;;;;;;6.85;2.70;;;43.80;22.00;;;;;;6118017;29;20079;-74
2023/07/08 16:30:19;;;;;;;8.93;2.40;;;43.90;21.90;;;;;;6118025;29;20142;-74
2023/07/08 16:33:22;;;;;;;3.75;2.40;;;43.80;21.90;;;;;;6114200;29;20059;-73
2023/07/08 16:36:25;;;;;;;3.60;2.40;;;43.50;22.10;;;;;;6117088;29;20039;-75
2023/07/08 16:39:27;;;;;;;4.07;2.05;;;43.20;22.40;;;;;;6118385;29;20036;-74
2023/07/08 16:42:38;;;;;;;4.38;2.60;;;43.00;22.70;;;;;;6118097;29;20039;-74
2023/07/08 16:45:40;;;;;;;5.07;2.70;;;42.90;22.80;;;;;;6119994;28;20066;-77
2023/07/08 16:48:43;;;;;;;9.77;2.58;;;42.60;22.90;;;;;;6102561;29;20183;-74
2023/07/08 16:51:43;;;;;;;9.68;2.92;;;42.50;23.00;;;;;;6102711;29;20031;-74
2023/07/08 16:54:46;;;;;;;7.88;2.53;;;42.30;23.30;;;;;;6117485;29;20051;-76
2023/07/08 16:57:48;;;;;;;7.00;2.92;;;42.10;23.30;;;;;;6118038;29;20032;-75
2023/07/08 17:00:49;;;;;;;7.85;2.80;;;42.10;23.40;;;;;;6101469;29;20043;-74
2023/07/08 17:03:52;;;;;;;4.47;2.65;;;41.70;23.60;;;;;;6118710;29;20395;-74
2023/07/08 17:06:55;;;;;;;7.72;2.40;;;40.70;24.50;;;;;;6101803;29;20070;-75
2023/07/08 17:09:56;;;;;;;6.50;3.75;;;39.60;25.50;;;;;;6117978;29;20127;-77
2023/07/08 17:12:57;;;;;;;8.35;2.88;;;38.70;26.50;;;;;;6100254;29;20369;-73
2023/07/08 17:15:58;;;;;;;11.48;2.97;;;38.00;27.20;;;;;;6082605;29;20035;-74
2023/07/08 17:19:00;;;;;;;6.30;2.63;;;37.40;27.80;;;;;;6082681;29;20094;-74
2023/07/08 17:22:01;;;;;;;6.97;2.67;;;37.00;28.50;;;;;;6097565;29;20046;-74
2023/07/08 17:25:01;;;;;;;6.28;2.60;;;36.60;28.90;;;;;;6082417;29;20044;-74
2023/07/08 17:28:02;;;;;;;8.18;2.83;;;36.30;29.40;;;;;;6101397;29;20039;-73
2023/07/08 17:31:04;;;;;;;12.23;3.53;;;35.90;29.80;;;;;;6126433;29;20143;-74
2023/07/08 17:34:05;;;;;;;6.07;2.75;;;35.70;30.10;;;;;;6129287;29;20035;-74
2023/07/08 17:37:08;;;;;;;7.28;2.38;;;35.50;30.50;;;;;;6137128;29;20032;-74
2023/07/08 17:40:17;;;;;;;8.55;2.58;;;35.30;30.80;;;;;;6120645;29;20519;-75
2023/07/08 17:43:18;;;;;;;5.88;2.70;;;35.10;31.00;;;;;;6107444;29;20399;-73
2023/07/08 17:46:22;;;;;;;5.00;2.63;;;35.10;31.20;;;;;;6144462;29;20031;-76
2023/07/08 17:49:25;;;;;;;9.90;3.42;;;35.10;31.30;;;;;;6146411;28;20093;-77
2023/07/08 17:52:26;;;;;;;7.93;3.15;;;35.10;31.40;;;;;;6128265;28;20138;-73
2023/07/08 17:55:27;;;;;;;10.45;2.80;;;35.00;31.60;;;;;;6146528;28;20042;-74
2023/07/08 17:58:32;;;;;;;5.20;3.03;;;34.80;31.90;;;;;;6144716;28;20590;-74
2023/07/08 18:01:33;;;;;;;6.45;3.10;;;34.70;32.00;;;;;;6144258;29;20486;-74
2023/07/08 18:04:34;;;;;;;7.80;3.20;;;34.70;32.20;;;;;;6136850;28;20218;-73
2023/07/08 18:07:35;;;;;;;5.10;2.42;;;34.70;32.40;;;;;;6121852;29;20051;-74
2023/07/08 18:10:37;;;;;;;11.85;2.70;;;34.60;32.70;;;;;;6120135;29;20028;-74
2023/07/08 18:13:38;;;;;;;5.07;2.55;;;34.50;32.90;;;;;;6121944;29;20023;-73
2023/07/08 18:16:40;;;;;;;6.65;2.80;;;34.50;33.00;;;;;;6121034;29;20031;-73
2023/07/08 18:19:41;;;;;;;5.25;2.92;;;34.50;33.10;;;;;;6120107;29;20058;-73
2023/07/08 18:22:49;;;;;;;6.15;2.85;;;34.50;33.10;;;;;;6120622;29;20051;-75
2023/07/08 18:25:50;;;;;;;6.93;2.53;;;34.40;33.30;;;;;;6119663;29;20488;-74
2023/07/08 18:28:52;;;;;;;6.03;2.67;;;34.40;33.40;;;;;;6120407;29;20118;-74
2023/07/08 18:31:53;;;;;;;8.35;3.10;;;34.30;33.50;;;;;;6119499;29;20091;-74
2023/07/08 18:34:54;;;;;;;8.15;3.05;;;34.30;33.70;;;;;;6119723;29;20058;-74
2023/07/08 18:37:55;;;;;;;6.80;3.08;;;34.20;33.80;;;;;;6119866;29;20043;-74
2023/07/08 18:40:58;;;;;;;9.50;3.55;;;34.20;34.00;;;;;;6120094;29;20046;-75
2023/07/08 18:43:58;;;;;;;6.55;2.90;;;34.10;34.10;;;;;;6120108;29;20167;-74
2023/07/08 18:47:01;;;;;;;9.85;3.05;;;34.10;34.50;;;;;;6119871;29;20071;-75
2023/07/08 18:50:02;;;;;;;6.72;2.90;;;34.10;34.30;;;;;;6121909;29;20040;-74
2023/07/08 18:53:08;;;;;;;7.68;3.10;;;34.10;34.40;;;;;;6119567;29;20061;-74
2023/07/08 18:56:16;;;;;;;9.00;3.35;;;33.70;34.40;;;;;;6120460;29;20495;-73
2023/07/08 18:59:19;;;;;;;6.18;3.30;;;33.90;34.80;;;;;;6119767;29;20032;-75
2023/07/08 19:02:37;;;;;;;7.97;3.00;;;33.80;34.90;;;;;;6119014;29;20122;-74
2023/07/08 19:05:39;;;;;;;8.70;2.88;;;33.80;35.20;;;;;;6102296;29;20134;-74
2023/07/08 19:08:43;;;;;;;7.80;2.72;;;33.80;35.30;;;;;;6096198;29;20119;-76
2023/07/08 19:11:46;;;;;;;8.30;3.13;;;33.70;35.60;;;;;;6095696;29;20043;-73
2023/07/08 19:14:48;;;;;;;7.30;2.85;;;33.60;35.80;;;;;;6095665;29;20458;-74
2023/07/08 19:17:50;;;;;;;10.77;2.97;;;33.60;35.90;;;;;;6095518;29;20135;-75
2023/07/08 19:20:51;;;;;;;7.03;2.95;;;33.60;36.00;;;;;;6097581;29;20118;-74
2023/07/08 19:23:55;;;;;;;16.88;3.40;;;33.50;36.20;;;;;;6128877;28;20088;-75
2023/07/08 19:26:56;;;;;;;7.20;2.55;;;33.50;36.30;;;;;;6142810;28;20438;-75
2023/07/08 19:29:56;;;;;;;5.75;3.05;;;33.50;36.40;;;;;;6144767;28;20043;-75
2023/07/08 19:32:59;;;;;;;7.95;3.03;;;33.40;36.50;;;;;;6142344;28;20039;-74
2023/07/08 19:36:02;;;;;;;7.13;3.50;;;33.40;36.80;;;;;;6127747;28;20368;-74
2023/07/08 19:39:04;;;;;;;8.93;3.20;;;33.30;36.90;;;;;;6120314;29;20035;-75
2023/07/08 19:42:08;;;;;;;7.80;3.35;;;33.30;37.00;;;;;;6118989;29;20042;-74
2023/07/08 19:45:19;;;;;;;9.77;3.00;;;33.20;37.00;;;;;;6102745;29;20468;-75
2023/07/08 19:48:20;;;;;;;12.98;3.38;;;33.20;37.20;;;;;;6118922;29;20179;-75
2023/07/08 19:51:20;;;;;;;5.72;2.97;;;33.10;37.30;;;;;;6121025;29;20053;-74
2023/07/08 19:54:24;;;;;;;12.27;3.20;;;33.00;37.30;;;;;;6119487;29;20035;-74
2023/07/08 19:57:24;;;;;;;5.15;3.15;;;33.00;37.50;;;;;;6119011;29;20036;-75
2023/07/08 20:00:40;;;;;;;6.80;3.05;;;32.90;37.50;;;;;;6126494;29;20037;-74
2023/07/08 20:03:41;;;;;;;7.22;2.67;;;32.80;37.70;;;;;;6126952;29;20111;-73
2023/07/08 20:06:45;;;;;;;8.73;2.70;;;32.80;37.70;;;;;;6142917;28;20062;-73
2023/07/08 20:09:46;;;;;;;5.50;2.80;;;32.80;37.70;;;;;;6142908;29;20149;-76
2023/07/08 20:12:48;;;;;;;10.57;3.40;;;32.80;37.60;;;;;;6142042;28;20054;-74
2023/07/08 20:15:49;;;;;;;12.95;3.08;;;32.80;37.70;;;;;;6142351;29;20035;-73
2023/07/08 20:18:56;;;;;;;4.82;2.92;;;32.60;37.80;;;;;;6137859;28;20634;-74
2023/07/08 20:21:57;;;;;;;5.85;2.92;;;32.60;37.90;;;;;;6120163;29;20437;-74
2023/07/08 20:24:57;;;;;;;6.88;2.83;;;32.60;37.90;;;;;;6118212;29;20036;-73
2023/07/08 20:27:58;;;;;;;5.68;3.00;;;32.50;37.80;;;;;;6119977;29;20500;-74
2023/07/08 20:31:00;;;;;;;9.18;3.58;;;32.50;37.90;;;;;;6118242;29;20036;-75
2023/07/08 20:34:01;;;;;;;5.60;2.55;;;32.50;38.00;;;;;;6117943;29;20460;-74
2023/07/08 20:37:02;;;;;;;6.68;3.30;;;32.40;38.20;;;;;;6119849;29;20035;-74
2023/07/08 20:40:11;;;;;;;12.48;3.75;;;32.40;38.30;;;;;;6120361;29;20039;-74
2023/07/08 20:43:23;;;;;;;7.95;3.30;;;32.40;38.50;;;;;;6120781;29;20090;-74
2023/07/08 20:46:27;;;;;;;10.15;3.20;;;32.30;38.40;;;;;;6126762;29;20685;-75
2023/07/08 20:49:28;;;;;;;8.43;3.50;;;32.30;38.40;;;;;;6143990;28;20086;-74
2023/07/08 20:52:33;;;;;;;6.82;3.70;;;32.30;38.40;;;;;;6146415;28;20028;-73
2023/07/08 20:55:34;;;;;;;10.15;3.80;;;32.20;38.30;;;;;;6149177;28;20046;-73
2023/07/08 20:58:36;;;;;;;10.25;3.60;;;32.20;38.30;;;;;;6124373;28;20043;-76
2023/07/08 21:01:37;;;;;;;10.82;3.08;;;32.20;38.60;;;;;;6124097;29;20159;-75
2023/07/08 21:04:39;;;;;;;7.53;3.22;;;32.20;38.50;;;;;;6124826;29;20042;-74
2023/07/08 21:07:41;;;;;;;10.18;2.80;;;32.20;38.60;;;;;;6124461;29;20031;-73
2023/07/08 21:10:42;;;;;;;11.30;3.67;;;32.10;38.60;;;;;;6123984;29;20042;-74
2023/07/08 21:13:43;;;;;;;7.28;3.20;;;32.10;39.40;;;;;;6122261;29;20028;-73
2023/07/08 21:16:47;;;;;;;6.03;2.80;;;32.10;39.00;;;;;;6141673;29;20042;-75
2023/07/08 21:19:48;;;;;;;11.80;3.28;;;32.10;39.00;;;;;;6145847;29;20035;-74
2023/07/08 21:22:49;;;;;;;8.23;3.05;;;32.00;39.10;;;;;;6146992;28;20505;-74
2023/07/08 21:25:53;;;;;;;8.50;2.97;;;32.00;39.30;;;;;;6129530;29;20035;-75
2023/07/08 21:28:58;;;;;;;7.18;3.33;;;32.00;39.30;;;;;;6122119;29;20043;-75
2023/07/08 21:32:00;;;;;;;6.13;3.15;;;32.00;39.50;;;;;;6105506;29;20182;-74
2023/07/08 21:35:01;;;;;;;9.57;3.15;;;31.90;39.60;;;;;;6105875;29;20054;-74
2023/07/08 21:38:03;;;;;;;10.85;3.35;;;31.90;39.70;;;;;;6097952;29;20040;-73
2023/07/08 21:41:04;;;;;;;6.32;3.30;;;31.80;39.90;;;;;;6098994;29;20092;-75
2023/07/08 21:44:13;;;;;;;9.05;3.10;;;31.80;40.00;;;;;;6123690;29;20111;-74
2023/07/08 21:47:14;;;;;;;5.88;3.17;;;31.70;40.20;;;;;;6145896;29;20054;-73
2023/07/08 21:50:16;;;;;;;6.13;3.20;;;31.70;40.30;;;;;;6145522;28;20553;-74
2023/07/08 21:53:21;;;;;;;8.23;3.38;;;31.70;40.40;;;;;;6135490;29;20040;-73
2023/07/08 21:56:24;;;;;;;4.45;2.95;;;31.60;40.50;;;;;;6122075;29;20066;-74
2023/07/08 21:59:25;;;;;;;6.57;3.17;;;31.60;40.60;;;;;;6106349;29;20040;-74
2023/07/08 22:02:26;;;;;;;7.47;3.63;;;31.50;40.70;;;;;;6120307;29;20407;-75
2023/07/08 22:05:28;;;;;;;9.18;2.95;;;31.50;40.70;;;;;;6114127;29;20043;-73
2023/07/08 22:08:29;;;;;;;8.60;3.20;;;31.50;40.90;;;;;;6105670;29;20028;-74
2023/07/08 22:11:36;;;;;;;9.10;3.38;;;31.50;40.90;;;;;;6128352;29;20058;-75
2023/07/08 22:14:40;;;;;;;10.02;3.20;;;31.40;41.10;;;;;;6144757;28;20053;-75
2023/07/08 22:17:41;;;;;;;11.32;3.28;;;31.30;41.10;;;;;;6128654;29;20077;-74
2023/07/08 22:20:43;;;;;;;7.20;2.80;;;31.30;41.20;;;;;;6128440;28;20042;-74
2023/07/08 22:23:45;;;;;;;7.13;3.47;;;31.20;41.30;;;;;;6130839;29;20048;-73
2023/07/08 22:26:47;;;;;;;7.38;3.88;;;31.10;41.30;;;;;;6104398;29;20047;-74
2023/07/08 22:29:48;;;;;;;7.05;3.38;;;31.00;41.50;;;;;;6120508;29;20445;-73
2023/07/08 22:32:50;;;;;;;7.10;3.08;;;30.90;41.60;;;;;;6119989;29;20027;-75
2023/07/08 22:35:51;;;;;;;7.53;3.60;;;30.90;41.80;;;;;;6120879;29;20035;-72
2023/07/08 22:39:06;;;;;;;10.27;2.97;;;30.90;41.90;;;;;;6121803;29;20389;-72
2023/07/08 22:42:08;;;;;;;5.72;3.10;;;30.80;42.10;;;;;;6120005;29;20535;-75
2023/07/08 22:45:16;;;;;;;7.97;2.92;;;30.70;42.10;;;;;;6121261;29;20093;-73
2023/07/08 22:48:18;;;;;;;13.77;3.85;;;30.70;42.30;;;;;;6104538;29;20341;-74
2023/07/08 22:51:18;;;;;;;7.85;3.05;;;30.70;42.30;;;;;;6080688;29;20036;-74
2023/07/08 22:54:20;;;;;;;9.15;3.22;;;30.70;42.50;;;;;;6096826;29;20051;-74
2023/07/08 22:57:21;;;;;;;9.38;3.22;;;30.60;42.60;;;;;;6096028;29;20036;-73
2023/07/08 23:00:25;;;;;;;6.20;3.40;;;30.60;42.70;;;;;;6080554;29;20058;-76
2023/07/08 23:03:27;;;;;;;13.32;3.30;;;30.50;42.80;;;;;;6096040;29;20032;-74
2023/07/08 23:06:29;;;;;;;7.82;3.03;;;30.60;43.00;;;;;;6119831;29;20074;-74
2023/07/08 23:09:30;;;;;;;7.80;3.28;;;30.50;42.90;;;;;;6119588;29;20035;-73
2023/07/08 23:12:31;;;;;;;6.88;3.75;;;30.50;43.00;;;;;;6120352;29;20055;-75
2023/07/08 23:15:33;;;;;;;8.20;3.75;;;30.50;43.00;;;;;;6119576;29;20036;-74
2023/07/08 23:18:36;;;;;;;6.55;3.28;;;30.50;43.00;;;;;;6120522;29;20028;-74
2023/07/08 23:21:37;;;;;;;6.63;3.22;;;30.40;43.00;;;;;;6103633;29;20044;-73
2023/07/08 23:24:38;;;;;;;7.93;3.58;;;30.40;43.10;;;;;;6103001;29;20032;-74
2023/07/08 23:27:40;;;;;;;5.25;2.83;;;30.40;43.30;;;;;;6103598;29;20036;-73
2023/07/08 23:30:40;;;;;;;8.38;3.55;;;30.30;43.30;;;;;;6103488;29;20102;-72
2023/07/08 23:33:42;;;;;;;5.38;3.17;;;30.40;43.40;;;;;;6120043;29;20043;-72
2023/07/08 23:36:49;;;;;;;6.82;3.35;;;30.40;43.40;;;;;;6118827;29;20036;-73
2023/07/08 23:39:51;;;;;;;7.03;3.27;;;30.40;43.40;;;;;;6119096;29;20083;-74
2023/07/08 23:42:51;;;;;;;9.40;3.53;;;30.40;43.30;;;;;;6103213;29;20119;-74
2023/07/08 23:45:53;;;;;;;7.00;3.53;;;30.40;43.30;;;;;;6107339;29;20046;-75
2023/07/08 23:48:55;;;;;;;15.50;3.92;;;30.50;43.40;;;;;;6104323;29;20031;-73
2023/07/08 23:51:57;;;;;;;7.65;2.90;;;30.40;43.40;;;;;;6124892;29;20039;-74
2023/07/08 23:54:58;;;;;;;8.48;3.38;;;30.40;43.60;;;;;;6105050;29;20051;-75
2023/07/08 23:58:00;;;;;;;6.13;3.00;;;30.40;43.70;;;;;;6119273;29;20036;-74
